createdAt,value
2023-04-21T00:00:59.617Z,100.00
2023-04-21T00:03:28.188Z,100.00
2023-04-21T00:05:58.174Z,100.00
2023-04-21T00:08:27.999Z,100.00
2023-04-21T00:10:54.970Z,100.00
2023-04-21T00:13:22.421Z,100.00
2023-04-21T00:15:49.585Z,100.00
2023-04-21T00:18:17.483Z,100.00
2023-04-21T00:20:44.480Z,100.00
2023-04-21T00:23:11.211Z,100.00
2023-04-21T00:25:37.928Z,100.00
2023-04-21T00:28:05.055Z,100.00
2023-04-21T00:30:31.953Z,100.00
2023-04-21T00:32:58.790Z,100.00
2023-04-21T00:35:25.981Z,100.00
2023-04-21T00:37:54.305Z,100.00
2023-04-21T00:40:21.142Z,100.00
2023-04-21T00:42:48.358Z,100.00
2023-04-21T00:45:15.380Z,100.00
2023-04-21T00:47:42.482Z,100.00
2023-04-21T00:50:11.334Z,100.00
2023-04-21T00:52:41.648Z,100.00
2023-04-21T00:55:08.832Z,100.00
2023-04-21T00:57:36.404Z,100.00
2023-04-21T01:00:05.602Z,100.00
2023-04-21T01:02:34.730Z,100.00
2023-04-21T01:05:01.837Z,100.00
2023-04-21T01:07:29.033Z,100.00
2023-04-21T01:09:56.718Z,100.00
2023-04-21T01:12:23.544Z,100.00
2023-04-21T01:14:53.628Z,100.00
2023-04-21T01:17:20.932Z,100.00
2023-04-21T01:19:47.725Z,100.00
2023-04-21T01:22:16.314Z,100.00
2023-04-21T01:24:43.953Z,100.00
2023-04-21T01:27:16.085Z,100.00
2023-04-21T01:29:43.330Z,100.00
2023-04-21T01:32:12.688Z,100.00
2023-04-21T01:34:41.733Z,100.00
2023-04-21T01:37:11.390Z,100.00
2023-04-21T01:39:39.904Z,100.00
2023-04-21T01:42:06.979Z,100.00
2023-04-21T01:44:33.917Z,100.00
2023-04-21T01:47:01.145Z,100.00
2023-04-21T01:49:28.172Z,100.00
2023-04-21T01:51:55.389Z,100.00
2023-04-21T01:54:22.217Z,100.00
2023-04-21T01:56:49.009Z,100.00
2023-04-21T01:59:16.314Z,100.00
2023-04-21T02:01:43.462Z,100.00
2023-04-21T02:04:10.668Z,100.00
2023-04-21T02:06:37.767Z,100.00
2023-04-21T02:09:06.326Z,100.00
2023-04-21T02:11:33.519Z,100.00
2023-04-21T02:14:00.496Z,100.00
2023-04-21T02:16:27.380Z,100.00
2023-04-21T02:18:57.215Z,100.00
2023-04-21T02:21:24.235Z,100.00
2023-04-21T02:23:51.402Z,100.00
2023-04-21T02:26:18.607Z,100.00
2023-04-21T02:28:45.578Z,100.00
2023-04-21T02:31:16.849Z,100.00
2023-04-21T02:33:44.558Z,100.00
2023-04-21T02:36:11.705Z,100.00
2023-04-21T02:38:38.713Z,100.00
2023-04-21T02:41:05.674Z,100.00
2023-04-21T02:43:34.091Z,100.00
2023-04-21T02:46:06.199Z,100.00
2023-04-21T02:48:34.968Z,100.00
2023-04-21T02:51:01.782Z,100.00
2023-04-21T02:53:28.626Z,100.00
2023-04-21T02:55:55.807Z,100.00
2023-04-21T02:58:23.590Z,100.00
2023-04-21T03:00:50.949Z,100.00
2023-04-21T03:03:17.940Z,100.00
2023-04-21T03:05:45.100Z,100.00
2023-04-21T03:08:12.350Z,100.00
2023-04-21T03:10:39.413Z,100.00
2023-04-21T03:13:06.306Z,100.00
2023-04-21T03:15:33.884Z,100.00
2023-04-21T03:18:02.294Z,100.00
2023-04-21T03:20:29.974Z,100.00
2023-04-21T03:22:57.265Z,100.00
2023-04-21T03:25:24.144Z,100.00
2023-04-21T03:27:51.013Z,100.00
2023-04-21T03:30:18.188Z,100.00
2023-04-21T03:32:45.291Z,100.00
2023-04-21T03:35:12.147Z,100.00
2023-04-21T03:37:39.347Z,100.00
2023-04-21T03:40:09.562Z,100.00
2023-04-21T03:42:36.751Z,100.00
2023-04-21T03:45:04.752Z,100.00
2023-04-21T03:47:33.246Z,100.00
2023-04-21T03:50:00.222Z,100.00
2023-04-21T03:52:26.962Z,100.00
2023-04-21T03:54:53.926Z,100.00
2023-04-21T03:57:20.850Z,100.00
2023-04-21T03:59:47.808Z,100.00
2023-04-21T04:02:14.886Z,100.00
2023-04-21T04:04:42.168Z,100.00
2023-04-21T04:07:09.512Z,100.00
2023-04-21T04:09:36.419Z,100.00
2023-04-21T04:12:03.702Z,100.00
2023-04-21T04:14:31.567Z,100.00
2023-04-21T04:16:58.865Z,100.00
2023-04-21T04:19:32.357Z,100.00
2023-04-21T04:22:00.637Z,100.00
2023-04-21T04:24:27.864Z,100.00
2023-04-21T04:26:54.753Z,100.00
2023-04-21T04:29:22.017Z,100.00
2023-04-21T04:31:52.348Z,100.00
2023-04-21T04:34:22.787Z,100.00
2023-04-21T04:36:50.722Z,100.00
2023-04-21T04:39:17.660Z,100.00
2023-04-21T04:41:44.752Z,100.00
2023-04-21T04:44:11.552Z,100.00
2023-04-21T04:46:38.961Z,100.00
2023-04-21T04:49:06.009Z,100.00
2023-04-21T04:51:37.494Z,100.00
2023-04-21T04:54:04.570Z,100.00
2023-04-21T04:56:32.519Z,100.00
2023-04-21T04:58:59.415Z,100.00
2023-04-21T05:01:30.153Z,100.00
2023-04-21T05:03:57.220Z,100.00
2023-04-21T05:06:24.263Z,100.00
2023-04-21T05:08:51.223Z,100.00
2023-04-21T05:11:18.349Z,100.00
2023-04-21T05:13:45.240Z,100.00
2023-04-21T05:16:12.393Z,100.00
2023-04-21T05:18:40.095Z,100.00
2023-04-21T05:21:07.182Z,100.00
2023-04-21T05:23:34.586Z,100.00
2023-04-21T05:26:04.133Z,100.00
2023-04-21T05:28:32.096Z,100.00
2023-04-21T05:30:59.036Z,100.00
2023-04-21T05:33:26.152Z,100.00
2023-04-21T05:35:55.697Z,100.00
2023-04-21T05:38:22.660Z,100.00
2023-04-21T05:40:55.548Z,100.00
2023-04-21T05:43:22.564Z,100.00
2023-04-21T05:45:49.366Z,100.00
2023-04-21T05:48:16.080Z,100.00
2023-04-21T05:50:43.163Z,100.00
2023-04-21T05:53:10.102Z,100.00
2023-04-21T05:55:37.067Z,100.00
2023-04-21T05:58:04.916Z,100.00
2023-04-21T06:00:33.044Z,100.00
2023-04-21T06:03:00.387Z,100.00
2023-04-21T06:05:27.468Z,100.00
2023-04-21T06:07:54.743Z,100.00
2023-04-21T06:10:21.870Z,100.00
2023-04-21T06:12:48.848Z,100.00
2023-04-21T06:15:15.801Z,97.78
2023-04-21T06:17:43.105Z,96.97
2023-04-21T06:20:11.217Z,95.33
2023-04-21T06:22:38.474Z,93.51
2023-04-21T06:25:05.903Z,93.12
2023-04-21T06:27:33.503Z,90.56
2023-04-21T06:30:00.667Z,88.39
2023-04-21T06:32:27.734Z,86.74
2023-04-21T06:34:54.957Z,85.12
2023-04-21T06:37:21.803Z,83.25
2023-04-21T06:39:48.676Z,80.37
2023-04-21T06:42:15.516Z,77.64
2023-04-21T06:44:42.677Z,76.59
2023-04-21T06:47:09.675Z,75.27
2023-04-21T06:49:36.994Z,73.78
2023-04-21T06:52:04.249Z,68.04
2023-04-21T06:54:31.302Z,67.03
2023-04-21T06:56:58.246Z,64.81
2023-04-21T06:59:25.442Z,64.52
2023-04-21T07:01:52.609Z,63.95
2023-04-21T07:04:19.734Z,62.36
2023-04-21T07:06:49.009Z,64.08
2023-04-21T07:09:15.965Z,65.44
2023-04-21T07:11:43.245Z,64.38
2023-04-21T07:14:10.469Z,65.48
2023-04-21T07:16:38.014Z,67.06
2023-04-21T07:19:04.964Z,66.91
2023-04-21T07:21:35.634Z,66.59
2023-04-21T07:24:02.926Z,66.71
2023-04-21T07:26:30.343Z,67.00
2023-04-21T07:28:57.994Z,67.15
2023-04-21T07:31:24.831Z,66.73
2023-04-21T07:33:51.864Z,64.94
2023-04-21T07:36:18.782Z,64.95
2023-04-21T07:38:45.838Z,63.78
2023-04-21T07:41:12.889Z,62.81
2023-04-21T07:43:40.630Z,62.42
2023-04-21T07:46:07.629Z,61.82
2023-04-21T07:48:34.658Z,62.78
2023-04-21T07:51:02.914Z,63.03
2023-04-21T07:53:30.402Z,63.84
2023-04-21T07:55:57.728Z,65.39
2023-04-21T07:58:24.689Z,65.15
2023-04-21T08:00:51.616Z,64.93
2023-04-21T08:03:18.786Z,65.21
2023-04-21T08:05:47.016Z,65.22
2023-04-21T08:08:19.646Z,65.46
2023-04-21T08:10:46.535Z,66.61
2023-04-21T08:13:13.390Z,65.38
2023-04-21T08:15:40.283Z,65.74
2023-04-21T08:18:08.145Z,67.16
2023-04-21T08:20:35.204Z,65.91
2023-04-21T08:23:02.341Z,64.54
2023-04-21T08:25:29.336Z,60.96
2023-04-21T08:27:56.202Z,60.93
2023-04-21T08:30:23.222Z,59.90
2023-04-21T08:32:50.515Z,59.77
2023-04-21T08:35:17.387Z,59.88
2023-04-21T08:37:45.100Z,60.41
2023-04-21T08:40:12.066Z,59.02
2023-04-21T08:42:39.023Z,57.85
2023-04-21T08:45:06.515Z,57.65
2023-04-21T08:47:34.059Z,57.55
2023-04-21T08:50:01.025Z,57.62
2023-04-21T08:52:27.960Z,58.06
2023-04-21T08:54:55.177Z,58.66
2023-04-21T08:57:22.322Z,58.77
2023-04-21T08:59:49.140Z,59.15
2023-04-21T09:02:17.291Z,58.68
2023-04-21T09:07:33.448Z,58.95
2023-04-21T09:10:00.465Z,58.84
2023-04-21T09:12:31.012Z,58.80
2023-04-21T09:14:58.115Z,58.49
2023-04-21T09:17:33.152Z,58.62
2023-04-21T09:20:15.850Z,58.89
2023-04-21T09:22:42.996Z,59.13
2023-04-21T09:25:10.424Z,60.08
2023-04-21T09:27:37.816Z,60.97
2023-04-21T09:30:08.167Z,61.35
2023-04-21T09:32:37.603Z,62.56
2023-04-21T09:35:09.169Z,62.86
2023-04-21T09:37:37.605Z,62.46
2023-04-21T09:40:05.715Z,61.99
2023-04-21T09:42:38.188Z,62.76
2023-04-21T09:45:28.332Z,63.79
2023-04-21T09:47:57.961Z,64.47
2023-04-21T09:50:51.266Z,64.83
2023-04-21T09:53:14.734Z,65.70
2023-04-21T09:55:41.651Z,65.69
2023-04-21T09:58:09.206Z,66.13
2023-04-21T10:00:38.771Z,66.58
2023-04-21T10:03:11.539Z,66.90
2023-04-21T10:05:41.891Z,67.24
2023-04-21T10:08:11.913Z,67.44
2023-04-21T10:10:40.837Z,66.25
2023-04-21T10:13:15.595Z,66.40
2023-04-21T10:15:42.605Z,66.96
2023-04-21T10:18:21.158Z,67.37
2023-04-21T10:21:18.887Z,68.25
2023-04-21T10:23:47.461Z,68.96
2023-04-21T10:26:14.918Z,69.96
2023-04-21T10:28:51.932Z,70.99
2023-04-21T10:31:38.643Z,71.28
2023-04-21T10:34:05.638Z,72.19
2023-04-21T10:36:48.922Z,72.60
2023-04-21T10:39:30.902Z,73.35
2023-04-21T10:41:58.575Z,73.70
2023-04-21T10:44:28.035Z,74.53
2023-04-21T10:46:55.939Z,75.56
2023-04-21T10:49:29.957Z,75.92
2023-04-21T10:52:02.842Z,76.60
2023-04-21T10:54:45.016Z,77.61
2023-04-21T10:57:18.065Z,75.80
2023-04-21T10:59:45.429Z,75.20
2023-04-21T11:02:14.102Z,75.30
2023-04-21T11:04:44.955Z,75.21
2023-04-21T11:07:13.075Z,73.60
2023-04-21T11:09:40.712Z,71.99
2023-04-21T11:12:11.253Z,71.87
2023-04-21T11:14:39.206Z,72.45
2023-04-21T11:17:11.176Z,73.07
2023-04-21T11:19:39.930Z,73.25
2023-04-21T11:22:06.789Z,73.62
2023-04-21T11:24:33.526Z,73.17
2023-04-21T11:27:01.568Z,73.08
2023-04-21T11:29:31.401Z,73.60
2023-04-21T11:31:58.683Z,74.12
2023-04-21T11:34:25.865Z,72.95
2023-04-21T11:36:52.650Z,71.93
2023-04-21T11:39:21.764Z,70.69
2023-04-21T11:41:50.095Z,71.15
2023-04-21T11:44:34.129Z,70.45
2023-04-21T11:47:11.438Z,68.93
2023-04-21T11:49:46.511Z,68.46
2023-04-21T11:52:27.499Z,68.94
2023-04-21T11:54:56.589Z,68.44
2023-04-21T11:57:24.907Z,67.97
2023-04-21T11:59:52.352Z,66.55
2023-04-21T12:02:29.857Z,66.20
2023-04-21T12:04:58.786Z,64.74
2023-04-21T12:07:26.264Z,65.42
2023-04-21T12:09:53.260Z,65.27
2023-04-21T12:12:21.656Z,65.49
2023-04-21T12:14:49.512Z,64.71
2023-04-21T12:17:16.144Z,63.98
2023-04-21T12:19:43.051Z,64.39
2023-04-21T12:22:14.788Z,65.05
2023-04-21T12:24:42.207Z,65.55
2023-04-21T12:27:09.465Z,65.32
2023-04-21T12:29:37.906Z,64.73
2023-04-21T12:32:05.651Z,64.62
2023-04-21T12:34:33.683Z,64.98
2023-04-21T12:37:00.663Z,64.25
2023-04-21T12:39:28.517Z,64.04
2023-04-21T12:41:57.116Z,63.78
2023-04-21T12:44:24.273Z,63.15
2023-04-21T12:46:52.071Z,62.23
2023-04-21T12:49:19.120Z,62.60
2023-04-21T12:51:46.651Z,62.75
2023-04-21T12:54:13.906Z,62.92
2023-04-21T12:56:41.796Z,62.83
2023-04-21T12:59:09.887Z,62.89
2023-04-21T13:01:38.188Z,62.87
2023-04-21T13:04:05.795Z,62.96
2023-04-21T13:06:35.449Z,63.37
2023-04-21T13:09:02.565Z,63.73
2023-04-21T13:11:29.627Z,63.73
2023-04-21T13:13:57.639Z,63.42
2023-04-21T13:16:24.575Z,64.22
2023-04-21T13:18:51.780Z,65.26
2023-04-21T13:21:18.812Z,65.68
2023-04-21T13:23:45.802Z,65.37
2023-04-21T13:26:12.803Z,64.97
2023-04-21T13:28:40.071Z,65.57
2023-04-21T13:31:07.221Z,65.62
2023-04-21T13:33:34.696Z,65.96
2023-04-21T13:36:02.834Z,66.41
2023-04-21T13:38:29.971Z,66.35
2023-04-21T13:40:57.089Z,65.74
2023-04-21T13:43:24.197Z,65.80
2023-04-21T13:45:51.609Z,66.03
2023-04-21T13:48:21.645Z,66.48
2023-04-21T13:50:48.504Z,66.69
2023-04-21T13:53:15.663Z,66.14
2023-04-21T13:55:46.163Z,65.56
2023-04-21T13:58:17.408Z,65.21
2023-04-21T14:00:44.429Z,65.61
2023-04-21T14:03:12.099Z,65.79
2023-04-21T14:05:39.164Z,65.90
2023-04-21T14:08:06.251Z,66.42
2023-04-21T14:10:33.409Z,66.54
2023-04-21T14:13:01.026Z,66.99
2023-04-21T14:15:27.938Z,66.75
2023-04-21T14:17:55.985Z,65.91
2023-04-21T14:20:22.892Z,64.58
2023-04-21T14:22:49.993Z,64.73
2023-04-21T14:25:17.030Z,64.78
2023-04-21T14:27:43.851Z,65.27
2023-04-21T14:30:11.230Z,65.07
2023-04-21T14:32:44.049Z,64.79
2023-04-21T14:35:14.040Z,65.34
2023-04-21T14:37:41.035Z,65.73
2023-04-21T14:40:08.725Z,65.10
2023-04-21T14:42:36.071Z,65.07
2023-04-21T14:45:03.225Z,65.53
2023-04-21T14:47:30.544Z,65.47
2023-04-21T14:49:57.317Z,65.69
2023-04-21T14:52:25.208Z,65.04
2023-04-21T14:54:52.180Z,65.25
2023-04-21T14:57:21.440Z,66.00
2023-04-21T14:59:50.053Z,66.76
2023-04-21T15:02:17.092Z,66.71
2023-04-21T15:04:44.249Z,66.78
2023-04-21T15:07:11.612Z,66.59
2023-04-21T15:09:45.153Z,67.03
2023-04-21T15:12:12.954Z,67.57
2023-04-21T15:14:40.125Z,67.87
2023-04-21T15:17:07.310Z,68.18
2023-04-21T15:19:34.669Z,68.44
2023-04-21T15:22:04.133Z,68.48
2023-04-21T15:24:31.092Z,68.73
2023-04-21T15:26:58.178Z,68.86
2023-04-21T15:29:25.058Z,69.11
2023-04-21T15:31:52.127Z,69.54
2023-04-21T15:34:19.114Z,69.90
2023-04-21T15:36:46.119Z,71.97
2023-04-21T15:39:15.898Z,73.65
2023-04-21T15:41:42.744Z,75.46
2023-04-21T15:44:09.835Z,76.83
2023-04-21T15:46:37.055Z,78.09
2023-04-21T15:49:04.324Z,78.90
2023-04-21T15:51:35.144Z,79.56
2023-04-21T15:54:02.080Z,80.22
2023-04-21T15:56:29.702Z,80.88
2023-04-21T15:58:56.548Z,81.63
2023-04-21T16:01:23.642Z,82.73
2023-04-21T16:03:50.969Z,84.60
2023-04-21T16:06:18.056Z,86.05
2023-04-21T16:08:45.208Z,87.47
2023-04-21T16:11:11.963Z,86.10
2023-04-21T16:13:40.174Z,85.77
2023-04-21T16:16:08.287Z,84.88
2023-04-21T16:18:35.715Z,84.34
2023-04-21T16:21:02.822Z,83.27
2023-04-21T16:23:29.801Z,83.63
2023-04-21T16:25:56.647Z,83.90
2023-04-21T16:28:23.600Z,84.50
2023-04-21T16:30:50.711Z,84.99
2023-04-21T16:33:17.964Z,87.38
2023-04-21T16:35:44.916Z,89.18
2023-04-21T16:38:11.695Z,90.11
2023-04-21T16:40:38.725Z,90.03
2023-04-21T16:43:06.538Z,89.85
2023-04-21T16:45:35.126Z,88.32
2023-04-21T16:48:03.160Z,88.10
2023-04-21T16:50:35.785Z,87.50
2023-04-21T16:53:03.226Z,88.93
2023-04-21T16:55:31.029Z,91.08
2023-04-21T16:57:58.874Z,91.58
2023-04-21T17:00:26.463Z,91.79
2023-04-21T17:02:54.146Z,93.12
2023-04-21T17:05:24.733Z,94.32
2023-04-21T17:07:51.937Z,95.71
2023-04-21T17:10:19.029Z,96.16
2023-04-21T17:12:46.390Z,97.03
2023-04-21T17:15:13.428Z,98.22
2023-04-21T17:17:42.305Z,99.45
2023-04-21T17:20:10.894Z,100.00
2023-04-21T17:22:39.602Z,100.00
2023-04-21T17:25:06.847Z,100.00
2023-04-21T17:27:37.322Z,100.00
2023-04-21T17:30:05.094Z,100.00
2023-04-21T17:32:33.777Z,100.00
2023-04-21T17:35:02.358Z,100.00
2023-04-21T17:37:29.774Z,100.00
2023-04-21T17:39:57.390Z,100.00
2023-04-21T17:42:26.025Z,100.00
2023-04-21T17:44:52.872Z,100.00
2023-04-21T17:47:19.622Z,100.00
2023-04-21T17:49:46.343Z,100.00
2023-04-21T17:52:14.801Z,100.00
2023-04-21T17:54:45.604Z,100.00
2023-04-21T17:57:12.843Z,100.00
2023-04-21T17:59:40.185Z,100.00
2023-04-21T18:02:07.909Z,100.00
2023-04-21T18:04:36.028Z,100.00
2023-04-21T18:07:03.178Z,100.00
2023-04-21T18:09:31.699Z,100.00
2023-04-21T18:11:59.004Z,100.00
2023-04-21T18:14:26.472Z,100.00
2023-04-21T18:16:54.220Z,100.00
2023-04-21T18:19:21.071Z,100.00
2023-04-21T18:21:47.812Z,100.00
2023-04-21T18:24:15.001Z,100.00
2023-04-21T18:26:42.344Z,100.00
2023-04-21T18:29:08.995Z,100.00
2023-04-21T18:31:35.930Z,100.00
2023-04-21T18:34:02.748Z,100.00
2023-04-21T18:36:32.318Z,100.00
2023-04-21T18:38:59.817Z,100.00
2023-04-21T18:41:26.846Z,100.00
2023-04-21T18:43:53.794Z,100.00
2023-04-21T18:46:20.651Z,100.00
2023-04-21T18:48:47.383Z,100.00
2023-04-21T18:51:14.365Z,100.00
2023-04-21T18:53:42.553Z,100.00
2023-04-21T18:56:09.199Z,100.00
2023-04-21T18:58:35.919Z,100.00
2023-04-21T19:01:02.723Z,100.00
2023-04-21T19:03:32.363Z,100.00
2023-04-21T19:05:59.297Z,100.00
2023-04-21T19:08:38.748Z,100.00
2023-04-21T19:11:10.780Z,100.00
2023-04-21T19:13:38.023Z,100.00
2023-04-21T19:16:05.702Z,100.00
2023-04-21T19:18:32.853Z,100.00
2023-04-21T19:20:59.695Z,100.00
2023-04-21T19:23:26.465Z,100.00
2023-04-21T19:25:56.798Z,100.00
2023-04-21T19:28:23.538Z,100.00
2023-04-21T19:30:50.190Z,100.00
2023-04-21T19:33:17.421Z,100.00
2023-04-21T19:35:44.297Z,100.00
2023-04-21T19:38:11.303Z,100.00
2023-04-21T19:40:38.163Z,100.00
2023-04-21T19:43:08.023Z,100.00
2023-04-21T19:45:35.472Z,100.00
2023-04-21T19:48:02.299Z,100.00
2023-04-21T19:50:30.760Z,100.00
2023-04-21T19:52:57.491Z,100.00
2023-04-21T19:55:24.653Z,100.00
2023-04-21T19:57:51.959Z,100.00
2023-04-21T20:00:18.939Z,100.00
2023-04-21T20:02:45.867Z,100.00
2023-04-21T20:05:12.915Z,100.00
2023-04-21T20:07:40.038Z,100.00
2023-04-21T20:10:07.321Z,100.00
2023-04-21T20:12:34.280Z,100.00
2023-04-21T20:15:01.322Z,100.00
2023-04-21T20:17:28.517Z,100.00
2023-04-21T20:19:55.384Z,100.00
2023-04-21T20:22:22.206Z,100.00
2023-04-21T20:24:51.421Z,100.00
2023-04-21T20:27:18.115Z,100.00
2023-04-21T20:29:46.119Z,100.00
2023-04-21T20:32:13.376Z,100.00
2023-04-21T20:34:40.821Z,100.00
2023-04-21T20:37:09.583Z,100.00
2023-04-21T20:39:37.928Z,100.00
2023-04-21T20:42:13.126Z,100.00
2023-04-21T20:44:41.723Z,100.00
2023-04-21T20:47:08.986Z,100.00
2023-04-21T20:49:36.258Z,100.00
2023-04-21T20:52:03.364Z,100.00
2023-04-21T20:54:30.502Z,100.00
2023-04-21T20:56:57.268Z,100.00
2023-04-21T20:59:24.028Z,100.00
2023-04-21T21:01:50.937Z,100.00
2023-04-21T21:04:18.170Z,100.00
2023-04-21T21:06:45.184Z,100.00
2023-04-21T21:09:12.258Z,100.00
2023-04-21T21:11:39.041Z,100.00
2023-04-21T21:14:05.770Z,100.00
2023-04-21T21:16:32.541Z,100.00
2023-04-21T21:18:59.258Z,100.00
2023-04-21T21:21:26.563Z,100.00
2023-04-21T21:23:53.452Z,100.00
2023-04-21T21:26:20.304Z,100.00
2023-04-21T21:28:47.091Z,100.00
2023-04-21T21:31:16.239Z,100.00
2023-04-21T21:33:43.201Z,100.00
2023-04-21T21:36:10.029Z,100.00
2023-04-21T21:38:37.050Z,100.00
2023-04-21T21:41:05.128Z,100.00
2023-04-21T21:43:32.631Z,100.00
2023-04-21T21:45:59.502Z,100.00
2023-04-21T21:48:26.354Z,100.00
2023-04-21T21:50:53.193Z,100.00
2023-04-21T21:53:20.273Z,100.00
2023-04-21T21:55:47.356Z,100.00
2023-04-21T21:58:14.644Z,100.00
2023-04-21T22:00:42.117Z,100.00
2023-04-21T22:03:08.897Z,100.00
2023-04-21T22:05:35.789Z,100.00
2023-04-21T22:08:03.523Z,100.00
2023-04-21T22:10:30.509Z,100.00
2023-04-21T22:12:57.312Z,100.00
2023-04-21T22:15:24.045Z,100.00
2023-04-21T22:17:51.151Z,100.00
2023-04-21T22:20:18.670Z,100.00
2023-04-21T22:22:48.347Z,100.00
2023-04-21T22:25:15.201Z,100.00
2023-04-21T22:27:42.031Z,100.00
2023-04-21T22:30:09.065Z,100.00
2023-04-21T22:32:36.745Z,100.00
2023-04-21T22:35:03.913Z,100.00
2023-04-21T22:37:31.494Z,100.00
2023-04-21T22:39:59.292Z,100.00
2023-04-21T22:42:26.302Z,100.00
2023-04-21T22:44:53.181Z,100.00
2023-04-21T22:47:20.115Z,100.00
2023-04-21T22:49:47.135Z,100.00
2023-04-21T22:52:13.901Z,100.00
2023-04-21T22:54:43.648Z,100.00
2023-04-21T22:57:10.750Z,100.00
2023-04-21T22:59:37.901Z,100.00
2023-04-21T23:02:05.241Z,100.00
2023-04-21T23:04:34.600Z,100.00
2023-04-21T23:07:01.396Z,100.00
2023-04-21T23:09:28.656Z,100.00
2023-04-21T23:11:55.664Z,100.00
2023-04-21T23:14:22.812Z,100.00
2023-04-21T23:16:49.650Z,100.00
2023-04-21T23:19:16.506Z,100.00
2023-04-21T23:21:43.894Z,100.00
2023-04-21T23:24:10.572Z,100.00
2023-04-21T23:26:38.316Z,100.00
2023-04-21T23:29:05.430Z,100.00
2023-04-21T23:31:32.690Z,100.00
2023-04-21T23:34:00.129Z,100.00
2023-04-21T23:36:27.103Z,100.00
2023-04-21T23:38:54.043Z,100.00
2023-04-21T23:41:20.956Z,100.00
2023-04-21T23:43:47.886Z,100.00
2023-04-21T23:46:15.011Z,100.00
2023-04-21T23:48:42.107Z,100.00
2023-04-21T23:51:08.830Z,100.00
2023-04-21T23:53:36.327Z,100.00
2023-04-21T23:56:05.888Z,100.00
2023-04-21T23:58:32.832Z,100.00
